Time;durP1;ratioP1;P1;durP2;ratioP2;P2;SDS_P1;SDS_P2;PMS_P1;PMS_P2;Temp;Humidity;BMP_temperature;BMP_pressure;BME280_temperature;BME280_humidity;BME280_pressure;Samples;Min_cycle;Max_cycle;Signal;HPM_P1;HPM_P2
2020/12/09 00:01:15;;;;;;;18.00;13.63;;;1.90;99.90;;;;;;5071805;28;20314;-75
2020/12/09 00:03:44;;;;;;;22.20;14.40;;;;;;;;;;5072137;28;20291;-75
2020/12/09 00:06:11;;;;;;;20.27;13.17;;;;;;;;;;5071773;28;20290;-75
2020/12/09 00:08:39;;;;;;;19.33;14.20;;;;;;;;;;5071672;28;20290;-75
2020/12/09 00:11:08;;;;;;;18.10;13.43;;;;;;;;;;5071805;28;20667;-75
2020/12/09 00:13:35;;;;;;;19.67;14.17;;;;;;;;;;5071923;28;20666;-75
2020/12/09 00:16:02;;;;;;;20.60;16.00;;;;;;;;;;5072193;28;20202;-75
2020/12/09 00:18:32;;;;;;;22.93;16.40;;;;;;;;;;5071574;28;20290;-75
2020/12/09 00:20:59;;;;;;;24.87;17.03;;;;;;;;;;5071610;28;20862;-75
2020/12/09 00:23:25;;;;;;;25.97;16.93;;;;;;;;;;5071466;28;20237;-75
2020/12/09 00:25:54;;;;;;;21.40;16.27;;;;;;;;;;5071268;28;20290;-74
2020/12/09 00:28:21;;;;;;;25.43;16.93;;;;;;;;;;5090157;28;20272;-74
2020/12/09 00:30:48;;;;;;;25.20;17.10;;;;;;;;;;5076291;28;20237;-75
2020/12/09 00:33:17;;;;;;;24.37;17.10;;;;;;;;;;5075959;28;20241;-75
2020/12/09 00:35:45;;;;;;;26.10;17.17;;;;;;;;;;5075484;28;20230;-74
2020/12/09 00:38:13;;;;;;;24.03;17.20;;;;;;;;;;5068717;28;20246;-75
2020/12/09 00:40:43;;;;;;;22.97;16.60;;;;;;;;;;5055569;28;20317;-75
2020/12/09 00:43:10;;;;;;;25.77;17.17;;;;;;;;;;5056037;28;20297;-74
2020/12/09 00:45:36;;;;;;;25.00;17.60;;;;;;;;;;5055256;28;20648;-74
2020/12/09 00:48:05;;;;;;;23.67;17.40;;;;;;;;;;5055431;28;20234;-75
2020/12/09 00:50:32;;;;;;;24.30;17.53;;;;;;;;;;5055550;28;20231;-75
2020/12/09 00:53:01;;;;;;;22.37;17.40;;;;;;;;;;5060067;28;20201;-75
2020/12/09 00:55:27;;;;;;;23.47;17.80;;;1.30;99.90;;;;;;5060431;28;20219;-74
2020/12/09 00:57:56;;;;;;;21.63;17.10;;;;;;;;;;5055333;28;20659;-75
2020/12/09 01:00:22;;;;;;;24.90;16.83;;;;;;;;;;5066132;28;20234;-75
2020/12/09 01:02:51;;;;;;;24.67;17.10;;;;;;;;;;5068985;28;20231;-74
2020/12/09 01:05:18;;;;;;;25.37;17.60;;;;;;;;;;5072571;28;20290;-74
2020/12/09 01:07:45;;;;;;;24.30;15.30;;;;;;;;;;5057492;28;20644;-74
2020/12/09 01:10:14;;;;;;;20.83;15.70;;;;;;;;;;5075227;28;20202;-74
2020/12/09 01:12:42;;;;;;;21.00;15.10;;;;;;;;;;5075083;28;20242;-75
2020/12/09 01:15:11;;;;;;;20.13;14.20;;;;;;;;;;5074935;28;20238;-75
2020/12/09 01:17:38;;;;;;;24.83;14.80;;;;;;;;;;5068730;28;20681;-75
2020/12/09 01:20:07;;;;;;;23.13;15.37;;;;;;;;;;5074103;28;20709;-74
2020/12/09 01:22:34;;;;;;;21.50;14.20;;;;;;;;;;5055111;28;20711;-75
2020/12/09 01:25:03;;;;;;;22.80;15.60;;;;;;;;;;5072754;28;20252;-75
2020/12/09 01:27:31;;;;;;;23.63;14.07;;;1.90;99.90;;;;;;5063425;28;20238;-75
2020/12/09 01:29:59;;;;;;;27.47;14.43;;;;;;;;;;5074748;28;20234;-75
2020/12/09 01:32:26;;;;;;;20.53;14.10;;;;;;;;;;5074864;28;20619;-75
2020/12/09 01:34:54;;;;;;;19.33;13.70;;;;;;;;;;5074451;28;20242;-74
2020/12/09 01:37:21;;;;;;;22.13;14.10;;;;;;;;;;5074872;28;20233;-74
2020/12/09 01:39:50;;;;;;;22.33;13.60;;;;;;;;;;5074376;28;20206;-75
2020/12/09 01:42:17;;;;;;;23.33;13.30;;;;;;;;;;5074680;28;20262;-75
2020/12/09 01:44:46;;;;;;;20.30;14.00;;;;;;;;;;5074528;28;20232;-75
2020/12/09 01:47:14;;;;;;;19.13;13.90;;;;;;;;;;5074641;28;20235;-75
2020/12/09 01:49:41;;;;;;;20.40;15.17;;;;;;;;;;5074133;28;20230;-74
2020/12/09 01:52:09;;;;;;;20.17;15.23;;;;;;;;;;5056508;28;20198;-75
2020/12/09 01:54:36;;;;;;;23.93;15.40;;;;;;;;;;5073777;28;20219;-74
2020/12/09 01:57:05;;;;;;;21.47;15.33;;;;;;;;;;5073781;28;20309;-75
2020/12/09 01:59:32;;;;;;;23.43;15.63;;;1.80;99.90;;;;;;5073745;28;20641;-75
2020/12/09 02:02:01;;;;;;;23.23;14.37;;;;;;;;;;5073965;28;20266;-75
2020/12/09 02:04:28;;;;;;;20.37;14.67;;;;;;;;;;5073970;28;20238;-75
2020/12/09 02:06:55;;;;;;;21.13;15.77;;;;;;;;;;5073407;28;20229;-74
2020/12/09 02:09:23;;;;;;;22.90;15.10;;;;;;;;;;5074097;28;20291;-75
2020/12/09 02:11:51;;;;;;;21.17;13.97;;;;;;;;;;5073806;28;20231;-75
2020/12/09 02:14:20;;;;;;;17.43;13.23;;;;;;;;;;5073943;28;20297;-75
2020/12/09 02:16:50;;;;;;;19.70;13.27;;;;;;;;;;5073701;28;20646;-75
2020/12/09 02:19:18;;;;;;;18.57;12.90;;;;;;;;;;5070861;28;20234;-75
2020/12/09 02:21:48;;;;;;;20.40;13.53;;;;;;;;;;5052913;28;20274;-74
2020/12/09 02:24:15;;;;;;;19.27;13.97;;;;;;;;;;5073488;28;20238;-75
2020/12/09 02:26:43;;;;;;;18.33;13.67;;;;;;;;;;5072465;28;20257;-75
2020/12/09 02:29:10;;;;;;;18.33;13.57;;;;;;;;;;5072845;28;20290;-75
2020/12/09 02:31:39;;;;;;;22.13;13.53;;;;;;;;;;5073456;28;20256;-75
2020/12/09 02:34:06;;;;;;;20.40;13.10;;;;;;;;;;5072886;28;20234;-74
2020/12/09 02:36:33;;;;;;;17.80;13.07;;;;;;;;;;5073614;28;20234;-74
2020/12/09 02:39:02;;;;;;;22.90;13.90;;;;;;;;;;5073122;28;20290;-75
2020/12/09 02:41:28;;;;;;;21.57;13.57;;;2.00;99.90;;;;;;5072326;28;20255;-75
2020/12/09 02:43:57;;;;;;;17.40;13.33;;;;;;;;;;5073504;28;20315;-75
2020/12/09 02:46:24;;;;;;;21.23;13.67;;;;;;;;;;5073152;28;20670;-75
2020/12/09 02:48:51;;;;;;;19.10;13.27;;;;;;;;;;5073154;28;20354;-75
2020/12/09 02:51:19;;;;;;;19.37;13.07;;;;;;;;;;5072383;28;20683;-74
2020/12/09 02:53:45;;;;;;;19.63;13.10;;;;;;;;;;5073516;28;20230;-74
2020/12/09 02:56:15;;;;;;;18.00;12.33;;;;;;;;;;5072015;28;20289;-75
2020/12/09 02:58:41;;;;;;;17.60;12.37;;;;;;;;;;5053477;28;20238;-74
2020/12/09 03:01:08;;;;;;;15.60;11.67;;;;;;;;;;5053691;28;20239;-75
2020/12/09 03:03:36;;;;;;;17.23;10.93;;;;;;;;;;5052831;28;20237;-74
2020/12/09 03:06:03;;;;;;;17.13;11.40;;;;;;;;;;5053236;28;20245;-75
2020/12/09 03:08:30;;;;;;;16.33;11.53;;;;;;;;;;5052796;28;20701;-74
2020/12/09 03:10:56;;;;;;;15.80;12.07;;;;;;;;;;5052835;28;20243;-74
2020/12/09 03:13:24;;;;;;;16.60;11.80;;;;;;;;;;5052567;28;20283;-75
2020/12/09 03:15:51;;;;;;;18.67;12.77;;;;;;;;;;5052422;28;20235;-74
2020/12/09 03:18:18;;;;;;;19.47;13.47;;;;;;;;;;5058864;28;20235;-75
2020/12/09 03:20:46;;;;;;;19.90;13.67;;;;;;;;;;5071503;28;20313;-74
2020/12/09 03:23:13;;;;;;;20.63;13.43;;;;;;;;;;5072455;28;20230;-75
2020/12/09 03:25:40;;;;;;;21.97;13.17;;;;;;;;;;5072317;28;20319;-74
2020/12/09 03:28:08;;;;;;;18.80;13.43;;;;;;;;;;5062964;28;20274;-74
2020/12/09 03:30:36;;;;;;;20.93;12.93;;;;;;;;;;5068941;28;20242;-74
2020/12/09 03:33:02;;;;;;;21.13;13.50;;;;;;;;;;5065828;28;20228;-75
2020/12/09 03:35:29;;;;;;;22.07;13.40;;;;;;;;;;5052546;28;20232;-74
2020/12/09 03:37:56;;;;;;;17.93;12.83;;;;;;;;;;5056848;28;20200;-74
2020/12/09 03:40:24;;;;;;;16.53;11.67;;;;;;;;;;5072217;28;20242;-75
2020/12/09 03:42:50;;;;;;;19.13;12.53;;;;;;;;;;5072307;28;20265;-74
2020/12/09 03:45:22;;;;;;;16.00;11.97;;;;;;;;;;5071867;28;20236;-75
2020/12/09 03:47:50;;;;;;;18.80;11.53;;;;;;;;;;5071272;28;20196;-75
2020/12/09 03:50:16;;;;;;;15.00;10.90;;;;;;;;;;5072160;28;20639;-74
2020/12/09 03:52:43;;;;;;;15.70;11.07;;;;;;;;;;5072287;28;20236;-75
2020/12/09 03:55:10;;;;;;;19.30;10.93;;;;;;;;;;5072394;28;20234;-74
2020/12/09 03:57:36;;;;;;;17.70;10.33;;;;;;;;;;5071193;28;20294;-74
2020/12/09 04:00:06;;;;;;;14.40;9.63;;;;;;;;;;5071099;28;20228;-74
2020/12/09 04:02:33;;;;;;;11.67;9.10;;;;;;;;;;5070771;28;20267;-75
2020/12/09 04:05:01;;;;;;;14.80;9.17;;;;;;;;;;5072128;28;20247;-74
2020/12/09 04:07:28;;;;;;;13.70;8.93;;;;;;;;;;5071470;28;20203;-74
2020/12/09 04:09:55;;;;;;;13.80;9.03;;;;;;;;;;5052103;28;20795;-74
2020/12/09 04:12:23;;;;;;;12.63;9.27;;;;;;;;;;5070428;28;20232;-74
2020/12/09 04:14:50;;;;;;;11.60;8.10;;;2.70;99.90;;;;;;5071263;28;20303;-74
2020/12/09 04:17:18;;;;;;;13.77;8.33;;;;;;;;;;5072157;28;20205;-74
2020/12/09 04:19:45;;;;;;;9.27;7.90;;;;;;;;;;5071907;28;20234;-73
2020/12/09 04:22:13;;;;;;;11.03;7.80;;;;;;;;;;5071843;28;20262;-74
2020/12/09 04:24:40;;;;;;;11.60;8.00;;;;;;;;;;5071569;28;20239;-74
2020/12/09 04:27:08;;;;;;;12.90;7.97;;;;;;;;;;5051766;28;20313;-74
2020/12/09 04:29:35;;;;;;;10.30;7.63;;;;;;;;;;5051417;28;20243;-74
2020/12/09 04:32:02;;;;;;;10.50;7.63;;;;;;;;;;5051644;28;20744;-74
2020/12/09 04:34:29;;;;;;;10.73;7.47;;;;;;;;;;5051846;28;20205;-74
2020/12/09 04:36:55;;;;;;;9.80;7.20;;;2.40;99.90;;;;;;5065678;28;20695;-74
2020/12/09 04:39:23;;;;;;;11.87;7.60;;;;;;;;;;5070716;28;20233;-74
2020/12/09 04:41:51;;;;;;;12.07;7.60;;;;;;;;;;5071426;28;20295;-75
2020/12/09 04:44:18;;;;;;;13.23;7.93;;;;;;;;;;5071458;28;20655;-74
2020/12/09 04:46:46;;;;;;;11.60;7.33;;;;;;;;;;5071411;28;20633;-74
2020/12/09 04:49:15;;;;;;;10.50;7.60;;;;;;;;;;5071547;28;20667;-74
2020/12/09 04:51:58;;;;;;;12.33;7.83;;;;;;;;;;5063996;28;20216;-74
2020/12/09 04:54:30;;;;;;;9.73;7.63;;;;;;;;;;5055592;28;20196;-74
2020/12/09 04:57:08;;;;;;;12.13;7.67;;;;;;;;;;5057222;28;20234;-74
2020/12/09 04:59:39;;;;;;;10.23;7.80;;;;;;;;;;5057394;28;20234;-75
2020/12/09 05:02:06;;;;;;;11.87;8.50;;;;;;;;;;5066267;28;20313;-75
2020/12/09 05:04:35;;;;;;;11.13;8.03;;;2.40;99.90;;;;;;5071309;28;20242;-74
2020/12/09 05:07:06;;;;;;;12.70;7.77;;;;;;;;;;5071041;28;20230;-75
2020/12/09 05:09:39;;;;;;;13.03;7.13;;;;;;;;;;5071443;28;20265;-75
2020/12/09 05:12:07;;;;;;;12.37;8.20;;;;;;;;;;5070796;28;20203;-75
2020/12/09 05:14:35;;;;;;;13.57;9.93;;;;;;;;;;5059373;28;20227;-75
2020/12/09 05:17:04;;;;;;;14.57;10.23;;;;;;;;;;5054976;28;20231;-74
2020/12/09 05:19:32;;;;;;;12.33;10.07;;;;;;;;;;5055198;28;20235;-75
2020/12/09 05:22:00;;;;;;;12.13;9.17;;;;;;;;;;5055933;28;20251;-75
2020/12/09 05:24:26;;;;;;;12.27;9.50;;;;;;;;;;5071382;28;20203;-75
2020/12/09 05:26:54;;;;;;;12.23;9.10;;;;;;;;;;5056559;28;20263;-75
2020/12/09 05:29:21;;;;;;;13.13;8.63;;;2.30;99.90;;;;;;5055107;28;20285;-75
2020/12/09 05:31:48;;;;;;;14.07;9.17;;;;;;;;;;5055010;28;20239;-75
2020/12/09 05:34:27;;;;;;;13.60;9.50;;;;;;;;;;5055134;28;20205;-75
2020/12/09 05:36:55;;;;;;;14.57;9.10;;;;;;;;;;5054897;28;20235;-75
2020/12/09 05:39:22;;;;;;;12.47;8.37;;;;;;;;;;5055089;28;20231;-75
2020/12/09 05:41:49;;;;;;;12.27;8.37;;;;;;;;;;5072405;28;20292;-75
2020/12/09 05:44:17;;;;;;;10.70;8.00;;;;;;;;;;5074273;28;20269;-74
2020/12/09 05:46:55;;;;;;;14.60;8.73;;;;;;;;;;5074437;28;20203;-74
2020/12/09 05:49:22;;;;;;;12.50;9.10;;;;;;;;;;5074318;28;20277;-74
2020/12/09 05:52:03;;;;;;;11.80;8.90;;;;;;;;;;5074139;28;20241;-75
2020/12/09 05:54:30;;;;;;;15.57;9.63;;;;;;;;;;5056801;28;20691;-75
2020/12/09 05:56:59;;;;;;;13.23;9.00;;;;;;;;;;5054175;28;20228;-75
2020/12/09 05:59:35;;;;;;;16.47;10.03;;;;;;;;;;5054039;28;20250;-75
2020/12/09 06:02:09;;;;;;;17.73;9.83;;;;;;;;;;5070179;28;20597;-74
2020/12/09 06:04:57;;;;;;;16.33;10.77;;;;;;;;;;5074475;28;20236;-75
2020/12/09 06:07:24;;;;;;;14.53;9.20;;;;;;;;;;5073843;28;20257;-75
2020/12/09 06:10:10;;;;;;;16.30;9.23;;;;;;;;;;5074022;28;20235;-75
2020/12/09 06:12:52;;;;;;;15.87;9.17;;;;;;;;;;5074020;28;20222;-75
2020/12/09 06:15:19;;;;;;;11.80;8.93;;;;;;;;;;5060055;28;20235;-75
2020/12/09 06:17:46;;;;;;;16.00;9.27;;;;;;;;;;5072146;28;20238;-75
2020/12/09 06:20:13;;;;;;;13.10;7.87;;;;;;;;;;5072601;28;20615;-75
2020/12/09 06:22:40;;;;;;;11.40;8.20;;;;;;;;;;5061407;28;20773;-75
2020/12/09 06:25:09;;;;;;;13.27;7.83;;;;;;;;;;5068409;28;20287;-74
2020/12/09 06:27:37;;;;;;;12.40;8.13;;;;;;;;;;5070102;28;20262;-75
2020/12/09 06:30:06;;;;;;;11.77;7.87;;;;;;;;;;5073540;28;20223;-74
2020/12/09 06:32:46;;;;;;;17.53;8.03;;;;;;;;;;5070344;28;20242;-74
2020/12/09 06:35:12;;;;;;;12.37;7.67;;;;;;;;;;5069239;28;20285;-74
2020/12/09 06:37:39;;;;;;;13.93;9.80;;;;;;;;;;5070253;28;20242;-74
2020/12/09 06:40:10;;;;;;;13.97;10.00;;;;;;;;;;5070527;28;20234;-74
2020/12/09 06:42:37;;;;;;;14.80;10.80;;;;;;;;;;5065622;28;20298;-74
2020/12/09 06:45:06;;;;;;;15.83;11.07;;;;;;;;;;5069077;28;20774;-74
2020/12/09 06:47:33;;;;;;;18.83;11.17;;;;;;;;;;5068114;28;20290;-75
2020/12/09 06:50:01;;;;;;;26.57;16.63;;;;;;;;;;5064340;28;20198;-74
2020/12/09 06:52:38;;;;;;;24.27;15.80;;;;;;;;;;5062864;28;20240;-74
2020/12/09 06:55:06;;;;;;;14.07;10.07;;;;;;;;;;5069357;28;20735;-75
2020/12/09 06:57:35;;;;;;;12.27;7.93;;;;;;;;;;5064555;28;20283;-75
2020/12/09 07:00:19;;;;;;;13.73;6.97;;;;;;;;;;5063494;28;20252;-74
2020/12/09 07:02:47;;;;;;;10.23;6.90;;;2.70;99.90;;;;;;5064331;28;20250;-75
2020/12/09 07:05:17;;;;;;;12.87;6.63;;;;;;;;;;5071325;28;20253;-74
2020/12/09 07:07:45;;;;;;;12.87;6.47;;;;;;;;;;5072165;28;20227;-75
2020/12/09 07:10:13;;;;;;;11.97;6.40;;;;;;;;;;5064836;28;20228;-74
2020/12/09 07:12:42;;;;;;;12.87;6.90;;;;;;;;;;5060855;28;20228;-74
2020/12/09 07:15:08;;;;;;;13.50;7.13;;;;;;;;;;5064438;28;20251;-74
2020/12/09 07:17:36;;;;;;;11.43;7.30;;;;;;;;;;5071478;28;20228;-75
2020/12/09 07:20:04;;;;;;;12.57;7.93;;;;;;;;;;5062354;28;20201;-74
2020/12/09 07:22:33;;;;;;;12.63;8.13;;;;;;;;;;5065801;28;20307;-75
2020/12/09 07:25:00;;;;;;;12.23;7.53;;;;;;;;;;5068787;28;20206;-74
2020/12/09 07:27:29;;;;;;;11.70;7.87;;;;;;;;;;5069387;28;20280;-75
2020/12/09 07:29:59;;;;;;;13.27;10.10;;;;;;;;;;5068695;28;20702;-74
2020/12/09 07:32:27;;;;;;;18.47;12.80;;;;;;;;;;5071966;28;20247;-74
2020/12/09 07:34:57;;;;;;;23.47;14.83;;;;;;;;;;5065740;28;20231;-75
2020/12/09 07:37:27;;;;;;;18.83;12.73;;;;;;;;;;5068485;28;20235;-74
2020/12/09 07:39:57;;;;;;;21.40;13.17;;;;;;;;;;5065764;28;20586;-74
2020/12/09 07:42:25;;;;;;;17.90;12.93;;;;;;;;;;5071575;28;20191;-74
2020/12/09 07:44:53;;;;;;;19.50;12.80;;;;;;;;;;5069014;28;20227;-74
2020/12/09 07:47:25;;;;;;;15.47;11.10;;;;;;;;;;5054969;28;20237;-74
2020/12/09 07:49:53;;;;;;;19.33;12.30;;;;;;;;;;5068697;28;20224;-74
2020/12/09 07:52:26;;;;;;;20.17;12.60;;;;;;;;;;5062901;28;20623;-74
2020/12/09 07:54:57;;;;;;;20.17;14.90;;;;;;;;;;5059422;28;20212;-74
2020/12/09 07:57:27;;;;;;;23.93;16.97;;;;;;;;;;5069712;28;20244;-74
2020/12/09 07:59:54;;;;;;;24.90;17.40;;;;;;;;;;5068556;28;20249;-74
2020/12/09 08:02:22;;;;;;;22.50;14.10;;;;;;;;;;5064439;28;20217;-74
2020/12/09 08:04:51;;;;;;;17.53;11.90;;;;;;;;;;5067039;28;20225;-74
2020/12/09 08:07:19;;;;;;;21.17;12.63;;;;;;;;;;5066655;28;20312;-74
2020/12/09 08:10:04;;;;;;;16.43;11.87;;;;;;;;;;5067768;28;20198;-74
2020/12/09 08:12:34;;;;;;;18.20;11.30;;;;;;;;;;5070340;28;20208;-74
2020/12/09 08:15:01;;;;;;;18.23;11.33;;;;;;;;;;5071201;28;20224;-74
2020/12/09 08:17:29;;;;;;;21.30;11.43;;;;;;;;;;5061541;28;20239;-74
2020/12/09 08:20:01;;;;;;;15.97;9.43;;;;;;;;;;5070051;28;20232;-74
2020/12/09 08:22:29;;;;;;;16.13;8.90;;;;;;;;;;5070264;28;20283;-74
2020/12/09 08:25:10;;;;;;;17.47;7.63;;;;;;;;;;5070922;28;20202;-78
2020/12/09 08:27:42;;;;;;;14.50;9.03;;;;;;;;;;5065759;28;20260;-74
2020/12/09 08:30:11;;;;;;;14.00;8.83;;;;;;;;;;5064869;28;20639;-74
2020/12/09 08:32:57;;;;;;;17.50;10.83;;;;;;;;;;5068333;28;20236;-75
2020/12/09 08:35:25;;;;;;;14.83;9.00;;;;;;;;;;5060608;28;20238;-75
2020/12/09 08:37:52;;;;;;;11.10;7.50;;;;;;;;;;5067686;28;20279;-75
2020/12/09 08:40:21;;;;;;;10.17;6.73;;;;;;;;;;5065519;28;20534;-75
2020/12/09 08:42:58;;;;;;;8.97;5.97;;;;;;;;;;5068126;28;20233;-74
2020/12/09 08:45:27;;;;;;;10.00;5.50;;;;;;;;;;5070481;28;20292;-75
2020/12/09 08:47:54;;;;;;;14.60;6.07;;;;;;;;;;5070785;28;20230;-75
2020/12/09 08:50:22;;;;;;;11.30;5.27;;;;;;;;;;5059658;28;20292;-74
2020/12/09 08:52:49;;;;;;;10.47;5.27;;;;;;;;;;5074640;28;20293;-74
2020/12/09 08:55:16;;;;;;;10.10;4.80;;;;;;;;;;5073019;28;20226;-74
2020/12/09 08:57:44;;;;;;;14.97;5.37;;;;;;;;;;5075104;28;20686;-74
2020/12/09 09:00:11;;;;;;;11.80;5.13;;;;;;;;;;5073701;28;20250;-74
2020/12/09 09:02:42;;;;;;;12.33;5.47;;;;;;;;;;5069605;28;20230;-74
2020/12/09 09:05:09;;;;;;;7.90;4.83;;;;;;;;;;5072822;28;20224;-74
2020/12/09 09:07:36;;;;;;;12.53;5.40;;;;;;;;;;5071316;28;20293;-75
2020/12/09 09:10:04;;;;;;;12.43;6.70;;;;;;;;;;5061680;28;20256;-74
2020/12/09 09:12:31;;;;;;;14.00;9.03;;;;;;;;;;5061753;28;20613;-74
2020/12/09 09:14:58;;;;;;;16.20;10.30;;;;;;;;;;5073038;28;20230;-75
2020/12/09 09:17:27;;;;;;;19.33;12.27;;;;;;;;;;5069648;28;20226;-75
2020/12/09 09:19:54;;;;;;;21.40;12.57;;;;;;;;;;5058505;28;20239;-74
2020/12/09 09:22:21;;;;;;;18.63;10.97;;;;;;;;;;5070991;28;20237;-74
2020/12/09 09:24:50;;;;;;;12.27;6.83;;;;;;;;;;5072661;28;20709;-75
2020/12/09 09:27:19;;;;;;;9.33;6.30;;;;;;;;;;5069803;28;20275;-75
2020/12/09 09:29:48;;;;;;;8.77;5.63;;;;;;;;;;5078888;28;20286;-74
2020/12/09 09:32:15;;;;;;;11.03;5.67;;;;;;;;;;5072468;28;20636;-74
2020/12/09 09:34:43;;;;;;;16.60;5.30;;;;;;;;;;5073361;28;20635;-74
2020/12/09 09:37:12;;;;;;;10.83;5.10;;;;;;;;;;5073365;28;20231;-74
2020/12/09 09:39:39;;;;;;;9.27;5.30;;;;;;;;;;5073341;28;20236;-75
2020/12/09 09:42:06;;;;;;;12.07;5.00;;;;;;;;;;5073298;28;20666;-75
2020/12/09 09:44:32;;;;;;;10.97;5.00;;;;;;;;;;5073298;28;20218;-75
2020/12/09 09:47:00;;;;;;;10.87;5.17;;;;;;;;;;5072690;28;20238;-75
2020/12/09 09:49:26;;;;;;;13.97;5.70;;;;;;;;;;5073296;28;20201;-75
2020/12/09 09:51:54;;;;;;;10.63;5.63;;;;;;;;;;5073656;28;20230;-74
2020/12/09 09:54:21;;;;;;;9.67;5.60;;;;;;;;;;5068829;28;20271;-74
2020/12/09 09:56:49;;;;;;;12.53;5.70;;;;;;;;;;5073402;28;20228;-75
2020/12/09 09:59:16;;;;;;;10.50;6.10;;;;;;;;;;5061335;28;20240;-74
2020/12/09 10:01:43;;;;;;;11.17;5.67;;;;;;;;;;5064283;28;20229;-74
2020/12/09 10:04:10;;;;;;;12.30;5.90;;;;;;;;;;5067725;28;20812;-75
2020/12/09 10:06:37;;;;;;;12.93;5.80;;;;;;;;;;5056390;28;20231;-74
2020/12/09 10:09:05;;;;;;;13.67;5.93;;;;;;;;;;5067736;28;20232;-74
2020/12/09 10:11:32;;;;;;;12.17;5.73;;;;;;;;;;5063395;28;20241;-74
2020/12/09 10:13:59;;;;;;;12.83;5.70;;;;;;;;;;5060108;28;20231;-74
2020/12/09 10:16:27;;;;;;;9.87;5.97;;;;;;;;;;5070957;28;20231;-74
2020/12/09 10:18:54;;;;;;;16.60;6.23;;;;;;;;;;5060037;28;20284;-74
2020/12/09 10:21:24;;;;;;;14.30;6.60;;;;;;;;;;5072611;28;20666;-75
2020/12/09 10:23:54;;;;;;;10.23;5.70;;;;;;;;;;5066514;28;20252;-75
2020/12/09 10:26:27;;;;;;;18.70;8.93;;;;;;;;;;5059913;28;20272;-74
2020/12/09 10:28:54;;;;;;;18.27;8.13;;;;;;;;;;5071091;28;20259;-75
2020/12/09 10:31:21;;;;;;;18.53;9.60;;;;;;;;;;5065411;28;20236;-74
2020/12/09 10:33:48;;;;;;;22.23;9.77;;;;;;;;;;5064077;28;20241;-74
2020/12/09 10:36:15;;;;;;;10.77;5.80;;;;;;;;;;5068902;28;20248;-75
2020/12/09 10:38:42;;;;;;;11.63;6.50;;;;;;;;;;5071797;28;20198;-75
2020/12/09 10:41:10;;;;;;;10.47;6.60;;;;;;;;;;5071607;28;20202;-75
2020/12/09 10:43:38;;;;;;;14.57;6.97;;;;;;;;;;5064519;28;20218;-75
2020/12/09 10:46:05;;;;;;;12.67;7.67;;;;;;;;;;5065543;28;20251;-75
2020/12/09 10:48:32;;;;;;;20.17;8.37;;;;;;;;;;5056729;28;20233;-75
2020/12/09 10:50:59;;;;;;;13.67;7.73;;;;;;;;;;5072191;28;20239;-74
2020/12/09 10:53:28;;;;;;;15.30;7.97;;;;;;;;;;5071941;28;20230;-75
2020/12/09 10:55:59;;;;;;;16.30;8.80;;;;;;;;;;5064072;28;20197;-74
2020/12/09 10:58:26;;;;;;;15.10;6.70;;;;;;;;;;5065598;28;20233;-74
2020/12/09 11:00:54;;;;;;;14.60;6.77;;;;;;;;;;5062502;28;20233;-75
2020/12/09 11:03:21;;;;;;;14.63;7.23;;;;;;;;;;5062542;28;20232;-75
2020/12/09 11:05:48;;;;;;;10.87;5.20;;;;;;;;;;5070683;28;20685;-75
2020/12/09 11:08:15;;;;;;;11.83;6.27;;;;;;;;;;5064383;28;20900;-75
2020/12/09 11:10:42;;;;;;;14.13;5.60;;;;;;;;;;5071170;28;20192;-75
2020/12/09 11:13:08;;;;;;;11.63;5.30;;;;;;;;;;5063321;28;20233;-75
2020/12/09 11:15:35;;;;;;;9.77;4.70;;;;;;;;;;5069496;28;20243;-75
2020/12/09 11:18:03;;;;;;;11.00;5.17;;;;;;;;;;5055687;28;20234;-75
2020/12/09 11:20:29;;;;;;;11.37;4.77;;;;;;;;;;5072547;28;20260;-75
2020/12/09 11:22:57;;;;;;;8.80;5.00;;;;;;;;;;5068500;28;20283;-76
2020/12/09 11:25:24;;;;;;;12.33;5.47;;;;;;;;;;5066042;28;20784;-75
2020/12/09 11:27:51;;;;;;;13.83;5.80;;;;;;;;;;5067448;28;20355;-75
2020/12/09 11:30:18;;;;;;;15.27;6.10;;;;;;;;;;5071496;28;20237;-75
2020/12/09 11:32:45;;;;;;;12.00;6.33;;;;;;;;;;5069283;28;20206;-75
2020/12/09 11:35:13;;;;;;;10.30;5.13;;;;;;;;;;5069571;28;20225;-75
2020/12/09 11:37:39;;;;;;;9.80;5.43;;;;;;;;;;5057238;28;20240;-75
2020/12/09 11:40:08;;;;;;;12.07;5.07;;;;;;;;;;5059146;28;20233;-75
2020/12/09 11:42:38;;;;;;;13.20;5.33;;;;;;;;;;5066548;28;20209;-74
2020/12/09 11:45:06;;;;;;;10.30;5.50;;;;;;;;;;5067973;28;20307;-74
2020/12/09 11:47:32;;;;;;;12.57;6.17;;;;;;;;;;5060700;28;20305;-74
2020/12/09 11:49:59;;;;;;;16.73;5.80;;;;;;;;;;5070495;28;20294;-75
2020/12/09 11:52:27;;;;;;;12.00;5.70;;;;;;;;;;5072160;28;20618;-75
2020/12/09 11:54:54;;;;;;;10.57;5.77;;;;;;;;;;5069279;28;20589;-77
2020/12/09 11:57:20;;;;;;;14.27;7.00;;;;;;;;;;5065869;28;20229;-74
2020/12/09 11:59:47;;;;;;;14.10;6.97;;;;;;;;;;5069904;28;20242;-75
2020/12/09 12:02:14;;;;;;;11.23;5.93;;;;;;;;;;5057726;28;20235;-75
2020/12/09 12:04:41;;;;;;;11.27;6.10;;;;;;;;;;5070845;28;20261;-77
2020/12/09 12:07:08;;;;;;;11.60;6.20;;;;;;;;;;5068603;28;20213;-74
2020/12/09 12:09:35;;;;;;;14.20;5.77;;;;;;;;;;5062466;28;20309;-74
2020/12/09 12:12:02;;;;;;;13.87;7.03;;;;;;;;;;5071148;28;20625;-75
2020/12/09 12:14:29;;;;;;;11.07;6.30;;;;;;;;;;5068433;28;20225;-75
2020/12/09 12:16:55;;;;;;;9.90;6.53;;;;;;;;;;5066732;28;20263;-74
2020/12/09 12:19:22;;;;;;;13.03;6.97;;;;;;;;;;5058987;28;20289;-74
2020/12/09 12:21:50;;;;;;;13.63;6.70;;;;;;;;;;5063375;28;20283;-74
2020/12/09 12:24:17;;;;;;;13.23;6.23;;;;;;;;;;5065232;28;20218;-75
2020/12/09 12:26:45;;;;;;;13.67;5.43;;;;;;;;;;5065147;28;20249;-74
2020/12/09 12:29:11;;;;;;;11.73;5.77;;;;;;;;;;5066166;28;20381;-75
2020/12/09 12:31:38;;;;;;;11.87;6.60;;;;;;;;;;5069357;28;20226;-77
2020/12/09 12:34:05;;;;;;;11.47;6.57;;;;;;;;;;5066746;28;20667;-75
2020/12/09 12:36:32;;;;;;;11.07;6.43;;;;;;;;;;5064589;28;20230;-76
2020/12/09 12:38:59;;;;;;;11.97;6.90;;;;;;;;;;5068580;28;20278;-79
2020/12/09 12:41:26;;;;;;;15.67;6.03;;;;;;;;;;5067780;28;20359;-79
2020/12/09 12:43:54;;;;;;;11.20;6.23;;;;;;;;;;5070643;28;20259;-78
2020/12/09 12:46:20;;;;;;;14.53;6.60;;;;;;;;;;5069508;28;20207;-78
2020/12/09 12:48:47;;;;;;;9.60;5.73;;;;;;;;;;5064492;28;20714;-79
2020/12/09 12:51:20;;;;;;;15.37;5.37;;;;;;;;;;5067872;28;20242;-79
2020/12/09 12:53:47;;;;;;;12.30;6.10;;;;;;;;;;5065956;28;20202;-79
2020/12/09 12:56:16;;;;;;;10.30;5.40;;;;;;;;;;5061700;28;20702;-79
2020/12/09 12:58:42;;;;;;;13.57;6.33;;;;;;;;;;5068777;28;20808;-79
2020/12/09 13:01:10;;;;;;;13.53;6.60;;;;;;;;;;5066859;28;20238;-79
2020/12/09 13:03:36;;;;;;;13.50;6.83;;;;;;;;;;5066799;28;20678;-79
2020/12/09 13:06:04;;;;;;;14.17;8.40;;;;;;;;;;5068981;28;20200;-79
2020/12/09 13:08:31;;;;;;;14.80;7.23;;;;;;;;;;5066414;28;20198;-79
2020/12/09 13:10:58;;;;;;;16.50;6.70;;;;;;;;;;5066830;28;20226;-78
2020/12/09 13:13:25;;;;;;;20.07;8.90;;;;;;;;;;5064973;28;20195;-79
2020/12/09 13:15:58;;;;;;;15.80;7.80;;;;;;;;;;5068533;28;20230;-79
2020/12/09 13:18:27;;;;;;;17.30;7.97;;;;;;;;;;5066156;28;20260;-78
2020/12/09 13:20:54;;;;;;;23.57;7.97;;;;;;;;;;5067407;28;20227;-79
2020/12/09 13:23:21;;;;;;;15.63;6.93;;;;;;;;;;5060945;28;20230;-79
2020/12/09 13:25:48;;;;;;;12.60;6.00;;;;;;;;;;5069147;28;20757;-79
2020/12/09 13:28:15;;;;;;;12.70;5.73;;;;;;;;;;5065072;28;20242;-79
2020/12/09 13:30:42;;;;;;;15.60;6.40;;;;;;;;;;5058602;28;20284;-78
2020/12/09 13:33:12;;;;;;;12.10;5.40;;;;;;;;;;5064364;28;20267;-78
2020/12/09 13:35:40;;;;;;;11.13;5.40;;;;;;;;;;5059641;28;20295;-78
2020/12/09 13:38:07;;;;;;;14.30;5.83;;;;;;;;;;5068337;28;20210;-79
2020/12/09 13:40:34;;;;;;;13.90;5.77;;;;;;;;;;5067424;28;20570;-78
2020/12/09 13:43:01;;;;;;;10.73;5.23;;;;;;;;;;5072976;28;20199;-79
2020/12/09 13:45:28;;;;;;;14.00;6.80;;;;;;;;;;5066611;28;20744;-79
2020/12/09 13:47:54;;;;;;;12.43;6.67;;;;;;;;;;5069332;28;20191;-79
2020/12/09 13:50:21;;;;;;;11.13;6.00;;;;;;;;;;5067060;28;20217;-79
2020/12/09 13:52:49;;;;;;;12.87;6.40;;;;;;;;;;5064414;28;20206;-79
2020/12/09 13:55:16;;;;;;;12.17;6.50;;;;;;;;;;5068929;28;20227;-78
2020/12/09 13:57:42;;;;;;;14.70;7.00;;;;;;;;;;5069931;28;20237;-79
2020/12/09 14:00:10;;;;;;;13.03;6.70;;;;;;;;;;5073313;28;20241;-79
2020/12/09 14:02:37;;;;;;;13.87;6.77;;;;;;;;;;5061575;28;20342;-79
2020/12/09 14:05:04;;;;;;;14.67;5.93;;;;;;;;;;5066541;28;20219;-79
2020/12/09 14:07:31;;;;;;;14.30;6.57;;;;;;;;;;5066993;28;20258;-79
2020/12/09 14:09:59;;;;;;;17.40;6.90;;;;;;;;;;5069917;28;20226;-79
2020/12/09 14:12:26;;;;;;;14.37;6.80;;;;;;;;;;5070878;28;20200;-78
2020/12/09 14:14:52;;;;;;;15.50;8.07;;;;;;;;;;5066101;28;20734;-79
2020/12/09 14:17:21;;;;;;;18.00;8.53;;;;;;;;;;5067227;28;20195;-79
2020/12/09 14:19:49;;;;;;;18.40;7.97;;;;;;;;;;5070099;28;20226;-79
2020/12/09 14:22:16;;;;;;;17.80;8.33;;;;;;;;;;5070583;28;20209;-79
2020/12/09 14:24:43;;;;;;;17.03;9.03;;;;;;;;;;5064244;28;20242;-78
2020/12/09 14:27:11;;;;;;;20.20;9.37;;;;;;;;;;5069602;28;20722;-79